Ride Results

Moyston (24-06-2007)
Ride distance: 87.0 km

Outcomes - Moyston (24-06-2007)
Division No. of Entries Retired / DNE Completed Withdrawn Ineligible V/O Percentage Completed
HW 10 - 9 - - 1 90.00%
MW 32 - 20 3 - 9 62.50%
LW 18 - 14 - - 4 77.78%
JN 9 - 8 - - 1 88.89%
Totals 69 - 51 3 - 15 73.91%
Results - Moyston (24-06-2007)
No. Rider Horse Place Time Leg Speeds Total
Km/Hr
H/R bpm
Heavyweight
58 Dianne Tobin Commanche Man 1 5:32:00 17.0, 14.4 15.72 37, 44, 48 (Avg:46)
65 Carl Adamson Bowzatus 2 6:17:00 15.6, 12.3 13.85 36, 44, 47 (Avg:45)
94 Luke Steele Shadrach 3 6:19:00 14.6, 12.9 13.77 29, 40, 52 (Avg:46)
141 Lorraine Cubbin Jaharra Park Nureyev 4 6:51:00 13.4, 11.9 12.70 48, 51, 52 (Avg:51)
877 Max Oakley Poesie de Ibn Shahn 5 7:28:00 11.2, 12.0 11.65 32, 36, 48 (Avg:42)
137 Keith Preston Black Springs Thor 6 7:33:00 13.3, 10.0 11.52 32, 44, 51 (Avg:47)
852 Digger Leehane Shah 7 8:12:00 11.0, 10.2 10.61 32, 45, 48 (Avg:46)
115 Rod Mills Avondale Jay 7 8:12:00 11.0, 10.2 10.61 34, 49, 59 (Avg:54)
26 Katrina Westerhoff Sambika 9 8:38:00 10.0, 10.1 10.08 32, 44, 49 (Avg:46)
82 Jarrod Robinson Devonwood Fame N Fortune Lame L1 0:00:00 9.0 - 40, 38 (Avg:38)
Middleweight
100 Fay Bushby Pyrenees Phenomenon 1 4:52:00 17.6, 18.1 17.88 26, 38, 42 (Avg:40)
70 Fiona Passarin Coranderrk Edison 1 4:52:00 17.6, 18.1 17.88 38, 44, 49 (Avg:46)
142 Jan Scholes Gayland Mariah 1 4:52:00 16.9, 18.9 17.88 31, 43, 44 (Avg:43)
155 Janine Stembridge Storm 1 4:52:00 16.8, 19.0 17.88 36, 41, 49 (Avg:45)
95 Pauline Wallace Menora Fine Figure 5 5:12:00 18.3, 15.2 16.73 35, 39, 46 (Avg:42)
97 Gordon Wallace Menora Beagle Boy 5 5:12:00 18.3, 15.2 16.73 40, 52, 54 (Avg:53)
56 Wendy Bootle Blue Bopp 7 6:11:00 14.6, 13.4 14.07 38, 47, 54 (Avg:50)
69 Sue Cavill Koonwarra Kavalier 8 6:18:00 13.9, 13.6 13.81 36, 34, 47 (Avg:40)
75 Lisa Johnston Soliloquy 8 6:18:00 13.9, 13.6 13.81 36, 46, 54 (Avg:50)
89 Sheryl Herbert Krishlah Maleeka 10 6:20:00 14.5, 12.9 13.74 36, 44, 54 (Avg:49)
49 Jessica Remfry Ennerdale Meccano 10 6:20:00 14.5, 12.9 13.74 36, 35, 48 (Avg:41)
84 Kristie Taprell Kelkette Park Silver Excalibur 12 6:37:00 13.9, 12.4 13.15 40, 42, 42 (Avg:42)
74 Asher Batty Magic Glenn Kiandra 13 6:47:00 12.9, 12.6 12.83 32, 40, 41 (Avg:40)
182 Jessica Dastani Castlebar Dell 14 6:53:00 12.3, 12.9 12.64 35, 42, 46 (Avg:44)
133 Barry Sinclair Chipawood Micah 15 7:01:00 13.9, 11.0 12.40 41, 46, 51 (Avg:48)
865 Tina Camm Damazaylia 16 7:19:00 12.3, 11.4 11.89 28, 40, 48 (Avg:44)
78 Jennifer Pitman Meg 17 8:01:00 13.3, 9.0 10.85 37, 48, 56 (Avg:52)
873 Michelle Beekmans Kazoo Park Avis 18 8:13:00 10.3, 10.8 10.59 34, 37, 43 (Avg:40)
166 Christine Schepisi Al Bahir 19 8:38:00 10.0, 10.1 10.08 31, 39, 47 (Avg:43)
60 Leanne Wyllie Dunbraeton Farah 19 8:38:00 10.0, 10.1 10.08 25, 40, 39 (Avg:39)
107 Jo Brock My Friend Jack Heart Rate L2 0:00:00 14.5, 12.9 - 30, 46, 65 (Avg:55)
160 Jo-Anne Francis Hansaar Lame L2 0:00:00 13.4, 11.9 - 33, 42, 44 (Avg:43)
856 Samantha Mullins Tubbarubba Zeus Lame L2 0:00:00 13.2, 12.7 - 36, 48, 60 (Avg:54)
136 Cathy Preston Black Springs Aladdin Lame L2 0:00:00 13.3, 16.5 - 38, 48, 44 (Avg:46)
854 Lynne Start Lights Greyson Withdrawn L2 0:00:00 - - 32, 48, 38 (Avg:43)
2 Carole Bourke Warrawee Lazan Lame L1 0:00:00 16.1 - 34, 38 (Avg:38)
48 Marlie Hodge Tubbarubba Miracle Heart Rate L1 0:00:00 13.2 - 34, 60 (Avg:60)
872 Jenny Le Lievre Kazoo Park Hijack Lame L1 0:00:00 10.3 - 36, 34 (Avg:34)
875 Deborah McCarthy Shuja Banner Withdrawn L1 0:00:00 - - 34, 44 (Avg:44)
67 John Osboldstone Dowling Mourad Lame L1 0:00:00 18.4 - 35, 42 (Avg:42)
138 Emma Sellens Pindarem Withdrawn L1 0:00:00 - - 39, 42 (Avg:42)
42 Hans Peuker Marybank Marcus Lame P/R 0:00:00 - - 38
Lightweight
23 Brittnee Smith Currowan Winston 1 4:59:00 17.0, 17.8 17.46 36, 50, 48 (Avg:49)
43 Kellie Armistead Khamsin 2 6:11:00 17.0, 11.8 14.07 37, 47, 48 (Avg:47)
161 Shannon Decker Asmara Montage 3 6:32:00 13.7, 12.8 13.32 30, 37, 44 (Avg:40)
180 Amily Daw Razorback Pepita 4 6:47:00 12.9, 12.6 12.83 35, 38, 43 (Avg:40)
861 Brianna Bainger Castlebar Moonlight 5 6:53:00 12.3, 12.9 12.64 36, 36, 41 (Avg:38)
12 Chelsea Miller Castlebar Fair Claire 6 6:53:01 12.3, 12.9 12.64 33, 38, 42 (Avg:40)
860 Nicky Robinson Actress 7 6:53:02 12.3, 12.9 12.64 26, 33, 36 (Avg:34)
868 Lisa Beckinsale Shuja Bint Melika 8 7:02:00 13.3, 11.5 12.37 26, 36, 45 (Avg:40)
11 Rohan Stanes Turingal Park Dartagnion 8 7:02:00 13.3, 11.5 12.37 34, 47, 50 (Avg:48)
870 Roslyn Trait Taywoona Ibn Halim 10 7:23:00 11.8, 11.7 11.78 34, 45, 56 (Avg:50)
866 Kelly Jol Scrupulous 11 7:29:00 11.5, 11.7 11.63 48, 37, 45 (Avg:41)
208 Janeen Smith Taylorsglen Osca 12 7:49:00 12.7, 9.7 11.13 32, 40, 49 (Avg:44)
22 Sarah McLaughlin Elphyn Shafyre 13 7:59:00 11.0, 10.7 10.90 29, 39, 41 (Avg:40)
8 Jane McLaughlin Shaiesha 13 7:59:00 11.0, 10.7 10.90 34, 44, 52 (Avg:48)
91 Kim Noble Clovelly Park Rafiki Lame L2 0:00:00 16.1, 15.1 - 37, 43, 53 (Avg:48)
863 Erin Reid Brave Geronimo Lame L2 0:00:00 16.5, 10.8 - 36, 42, 46 (Avg:44)
61 Lois Sharam Musical Gully Instrument Lame L2 0:00:00 10.0, 10.1 - 36, 42, 48 (Avg:45)
151 Kasey Thomas Peoria Seismic Lame L2 0:00:00 13.7, 11.8 - 36, 35, 38 (Avg:36)
Junior
90 Samantha Noble Springridge Bungendore 1 5:33:00 16.1, 15.1 15.68 31, 37, 37 (Avg:37)
864 Jesse McKinnon Sandine Belcoo 2 6:35:00 16.5, 10.8 13.22 32, 40, 36 (Avg:38)
845 Kaitlin Sidlouskas Kanavor Kassan 3 6:41:00 13.5, 12.5 13.02 35, 40, 52 (Avg:46)
140 Samantha Cubbin Tiawarra Ramy 4 6:51:00 13.4, 11.9 12.70 28, 42, 45 (Avg:43)
871 Stevie-lyn Oborne Zhara 5 7:23:00 11.8, 11.7 11.78 34, 43, 36 (Avg:39)
876 Harlee McCarthy Shuja Dark Royalty 6 7:28:00 11.2, 12.0 11.65 39, 40, 42 (Avg:41)
869 Lana Gilbee Edilia The Sheik 7 7:49:00 12.7, 9.7 11.13 25, 40, 36 (Avg:38)
862 Ruby Blake Musical Gully Carousel 8 8:38:00 10.0, 10.1 10.08 37, 47, 56 (Avg:51)
88 Tahnee Lee Max Lame L1 0:00:00 12.2 - 34, 44 (Avg:44)